createdAt,value
2022-09-23T00:01:28.204Z,66.29
2022-09-23T00:03:56.377Z,67.28
2022-09-23T00:06:24.386Z,66.68
2022-09-23T00:08:52.284Z,66.68
2022-09-23T00:11:26.691Z,67.67
2022-09-23T00:13:56.887Z,67.83
2022-09-23T00:16:29.118Z,67.32
2022-09-23T00:19:01.467Z,67.27
2022-09-23T00:21:29.472Z,66.96
2022-09-23T00:23:56.275Z,67.07
2022-09-23T00:26:25.141Z,66.59
2022-09-23T00:28:56.772Z,67.77
2022-09-23T00:31:27.522Z,68.37
2022-09-23T00:33:56.872Z,67.86
2022-09-23T00:36:25.226Z,68.44
2022-09-23T00:38:53.466Z,67.90
2022-09-23T00:41:21.530Z,68.76
2022-09-23T00:43:56.741Z,69.04
2022-09-23T00:46:36.431Z,68.91
2022-09-23T00:49:15.630Z,69.38
2022-09-23T00:52:02.771Z,69.33
2022-09-23T00:54:32.483Z,68.81
2022-09-23T00:57:01.320Z,69.18
2022-09-23T00:59:29.163Z,67.61
2022-09-23T01:02:01.259Z,67.92
2022-09-23T01:04:30.043Z,68.14
2022-09-23T01:06:57.004Z,67.79
2022-09-23T01:09:25.206Z,67.55
2022-09-23T01:12:12.833Z,69.12
2022-09-23T01:15:04.660Z,69.11
2022-09-23T01:17:53.316Z,69.47
2022-09-23T01:20:43.116Z,69.37
2022-09-23T01:24:13.224Z,69.98
2022-09-23T01:26:49.488Z,68.91
2022-09-23T01:29:59.631Z,68.65
2022-09-23T01:32:47.792Z,69.35
2022-09-23T01:35:23.856Z,68.96
2022-09-23T01:37:58.038Z,69.24
2022-09-23T01:40:45.239Z,69.27
2022-09-23T01:43:36.404Z,68.44
2022-09-23T01:46:19.879Z,69.21
2022-09-23T01:49:20.572Z,68.99
2022-09-23T01:51:57.239Z,69.00
2022-09-23T01:54:45.574Z,68.59
2022-09-23T01:57:27.837Z,68.20
2022-09-23T02:00:05.819Z,69.33
2022-09-23T02:02:49.857Z,69.32
2022-09-23T02:05:24.577Z,67.90
2022-09-23T02:08:14.361Z,69.20
2022-09-23T02:10:58.907Z,68.62
2022-09-23T02:13:25.835Z,68.74
2022-09-23T02:15:58.544Z,68.03
2022-09-23T02:18:34.504Z,68.81
2022-09-23T02:21:06.926Z,68.79
2022-09-23T02:23:47.218Z,68.12
2022-09-23T02:26:41.317Z,67.66
2022-09-23T02:29:24.888Z,67.83
2022-09-23T02:32:20.538Z,68.56
2022-09-23T02:35:33.303Z,68.50
2022-09-23T02:38:44.667Z,66.73
2022-09-23T02:42:05.972Z,68.33
2022-09-23T02:44:36.336Z,67.62
2022-09-23T02:47:03.576Z,67.09
2022-09-23T02:49:32.897Z,67.25
2022-09-23T02:52:07.642Z,67.19
2022-09-23T02:54:35.503Z,67.20
2022-09-23T02:57:10.289Z,66.57
2022-09-23T02:59:38.245Z,66.97
2022-09-23T03:02:14.403Z,67.93
2022-09-23T03:05:06.733Z,67.70
2022-09-23T03:07:55.306Z,66.86
2022-09-23T03:10:42.936Z,67.51
2022-09-23T03:13:42.830Z,67.50
2022-09-23T03:16:21.809Z,67.68
2022-09-23T03:19:03.619Z,66.89
2022-09-23T03:22:00.843Z,67.54
2022-09-23T03:24:34.515Z,66.53
2022-09-23T03:27:13.571Z,66.12
2022-09-23T03:29:47.232Z,66.53
2022-09-23T03:32:22.147Z,67.54
2022-09-23T03:34:52.461Z,67.23
2022-09-23T03:37:31.436Z,67.95
2022-09-23T03:40:20.960Z,67.25
2022-09-23T03:42:49.125Z,67.51
2022-09-23T03:45:26.642Z,66.47
2022-09-23T03:47:56.244Z,66.33
2022-09-23T03:50:25.800Z,66.46
2022-09-23T03:52:53.300Z,65.57
2022-09-23T03:55:21.267Z,66.87
2022-09-23T03:57:51.059Z,67.02
2022-09-23T04:00:20.339Z,67.08
2022-09-23T04:02:47.218Z,66.74
2022-09-23T04:05:14.970Z,66.48
2022-09-23T04:07:42.652Z,67.17
2022-09-23T04:10:10.388Z,67.95
2022-09-23T04:12:40.194Z,67.13
2022-09-23T04:15:07.854Z,67.44
2022-09-23T04:17:34.844Z,68.30
2022-09-23T04:20:02.147Z,67.56
2022-09-23T04:22:29.037Z,67.77
2022-09-23T04:24:56.323Z,68.25
2022-09-23T04:27:23.359Z,68.58
2022-09-23T04:29:50.430Z,68.00
2022-09-23T04:32:20.805Z,67.36
2022-09-23T04:34:47.779Z,67.47
2022-09-23T04:37:17.233Z,68.40
2022-09-23T04:39:44.299Z,68.46
2022-09-23T04:42:11.188Z,67.89
2022-09-23T04:44:38.945Z,69.21
2022-09-23T04:47:08.496Z,68.56
2022-09-23T04:49:38.410Z,68.89
2022-09-23T04:52:07.803Z,69.17
2022-09-23T04:54:34.930Z,68.84
2022-09-23T04:57:04.305Z,68.66
2022-09-23T04:59:35.913Z,69.71
2022-09-23T05:02:02.853Z,68.58
2022-09-23T05:04:36.296Z,69.22
2022-09-23T05:07:03.927Z,68.80
2022-09-23T05:09:33.628Z,69.17
2022-09-23T05:12:02.743Z,68.94
2022-09-23T05:14:29.871Z,69.36
2022-09-23T05:16:56.854Z,69.60
2022-09-23T05:19:27.022Z,69.74
2022-09-23T05:21:56.181Z,70.69
2022-09-23T05:24:25.207Z,70.09
2022-09-23T05:26:52.515Z,69.17
2022-09-23T05:29:22.435Z,69.00
2022-09-23T05:31:52.453Z,69.56
2022-09-23T05:34:23.294Z,69.03
2022-09-23T05:36:50.608Z,67.98
2022-09-23T05:39:17.480Z,67.22
2022-09-23T05:41:44.541Z,67.10
2022-09-23T05:44:11.604Z,66.83
2022-09-23T05:46:40.797Z,66.90
2022-09-23T05:49:10.595Z,67.41
2022-09-23T05:51:37.809Z,67.78
2022-09-23T05:54:06.142Z,66.85
2022-09-23T05:56:37.234Z,66.41
2022-09-23T05:59:07.087Z,66.57
2022-09-23T06:01:36.778Z,66.68
2022-09-23T06:04:07.583Z,65.69
2022-09-23T06:06:42.754Z,66.19
2022-09-23T06:09:15.109Z,66.48
2022-09-23T06:11:46.754Z,66.39
2022-09-23T06:14:17.307Z,65.36
2022-09-23T06:16:46.263Z,63.37
2022-09-23T06:19:13.312Z,62.54
2022-09-23T06:21:41.019Z,62.99
2022-09-23T06:24:16.959Z,63.40
2022-09-23T06:26:45.881Z,63.92
2022-09-23T06:29:12.793Z,63.16
2022-09-23T06:31:43.317Z,62.21
2022-09-23T06:34:14.582Z,61.79
2022-09-23T06:36:45.311Z,60.34
2022-09-23T06:39:14.996Z,58.06
2022-09-23T06:41:42.202Z,56.42
2022-09-23T06:44:09.395Z,55.34
2022-09-23T06:46:37.255Z,55.48
2022-09-23T06:49:04.223Z,56.37
2022-09-23T06:51:31.476Z,57.15
2022-09-23T06:54:00.808Z,58.23
2022-09-23T06:56:32.533Z,58.28
2022-09-23T06:59:05.655Z,60.13
2022-09-23T07:01:35.751Z,60.49
2022-09-23T07:04:05.358Z,61.09
2022-09-23T07:06:32.590Z,61.08
2022-09-23T07:09:01.162Z,60.86
2022-09-23T07:11:32.667Z,61.41
2022-09-23T07:13:59.741Z,60.09
2022-09-23T07:16:29.042Z,58.68
2022-09-23T07:19:01.332Z,59.28
2022-09-23T07:21:28.437Z,59.40
2022-09-23T07:23:58.007Z,57.81
2022-09-23T07:26:25.828Z,55.83
2022-09-23T07:28:57.062Z,55.41
2022-09-23T07:31:38.226Z,55.18
2022-09-23T07:34:08.052Z,54.36
2022-09-23T07:36:40.811Z,54.26
2022-09-23T07:39:14.718Z,53.26
2022-09-23T07:41:44.601Z,48.43
2022-09-23T07:44:21.928Z,46.73
2022-09-23T07:46:52.858Z,45.51
2022-09-23T07:49:20.579Z,43.06
2022-09-23T07:51:51.203Z,41.50
2022-09-23T07:54:21.225Z,41.16
2022-09-23T07:56:51.027Z,41.06
2022-09-23T07:59:18.966Z,41.41
2022-09-23T08:01:57.340Z,39.33
2022-09-23T08:04:31.033Z,40.09
2022-09-23T08:07:04.724Z,39.69
2022-09-23T08:09:41.488Z,36.74
2022-09-23T08:12:16.385Z,33.57
2022-09-23T08:14:45.709Z,33.04
2022-09-23T08:17:13.882Z,32.56
2022-09-23T08:19:41.036Z,31.94
2022-09-23T08:22:17.736Z,33.75
2022-09-23T08:24:46.806Z,32.14
2022-09-23T08:27:16.704Z,33.41
2022-09-23T08:29:43.787Z,35.52
2022-09-23T08:32:10.889Z,34.74
2022-09-23T08:34:37.976Z,32.29
2022-09-23T08:37:08.993Z,34.48
2022-09-23T08:39:36.043Z,34.59
2022-09-23T08:42:18.977Z,35.27
2022-09-23T08:44:55.483Z,34.55
2022-09-23T08:47:22.356Z,33.83
2022-09-23T08:50:00.508Z,32.80
2022-09-23T08:53:10.880Z,32.15
2022-09-23T08:55:47.750Z,30.70
2022-09-23T08:58:26.990Z,29.36
2022-09-23T09:01:24.880Z,31.28
2022-09-23T09:04:01.227Z,30.69
2022-09-23T09:06:52.852Z,30.36
2022-09-23T09:09:30.873Z,29.74
2022-09-23T09:12:27.254Z,29.86
2022-09-23T09:15:14.607Z,28.36
2022-09-23T09:18:08.063Z,26.61
2022-09-23T09:20:51.858Z,25.26
2022-09-23T09:23:22.948Z,23.58
2022-09-23T09:25:57.558Z,25.53
2022-09-23T09:28:39.243Z,25.63
2022-09-23T09:31:24.790Z,24.98
2022-09-23T09:34:16.922Z,24.85
2022-09-23T09:36:50.333Z,24.66
2022-09-23T09:39:17.923Z,26.63
2022-09-23T09:41:52.178Z,23.64
2022-09-23T09:44:40.502Z,21.79
2022-09-23T09:47:51.187Z,21.85
2022-09-23T09:50:49.448Z,22.29
2022-09-23T09:53:24.079Z,23.97
2022-09-23T09:56:05.300Z,23.96
2022-09-23T09:58:51.967Z,25.49
2022-09-23T10:01:26.129Z,25.41
2022-09-23T10:03:59.163Z,24.59
2022-09-23T10:06:39.921Z,23.00
2022-09-23T10:09:19.555Z,24.06
2022-09-23T10:12:15.980Z,25.55
2022-09-23T10:14:44.427Z,23.57
2022-09-23T10:17:39.167Z,23.85
2022-09-23T10:20:14.680Z,23.12
2022-09-23T10:22:46.479Z,24.34
2022-09-23T10:25:21.651Z,22.24
2022-09-23T10:27:48.567Z,20.47
2022-09-23T10:30:15.690Z,19.59
2022-09-23T10:32:48.564Z,19.61
2022-09-23T10:35:21.092Z,18.56
2022-09-23T10:37:59.949Z,17.85
2022-09-23T10:40:48.525Z,17.56
2022-09-23T10:44:09.826Z,17.52
2022-09-23T10:46:49.195Z,18.19
2022-09-23T10:49:48.986Z,18.76
2022-09-23T10:52:37.009Z,17.97
2022-09-23T10:55:25.782Z,17.57
2022-09-23T10:58:43.890Z,18.08
2022-09-23T11:01:49.281Z,18.64
2022-09-23T11:04:52.946Z,18.80
2022-09-23T11:07:49.379Z,21.48
2022-09-23T11:10:57.640Z,19.79
2022-09-23T11:13:30.355Z,21.59
2022-09-23T11:16:21.159Z,20.34
2022-09-23T11:18:55.644Z,19.16
2022-09-23T11:22:16.027Z,20.13
2022-09-23T11:25:24.078Z,20.03
2022-09-23T11:28:03.722Z,21.89
2022-09-23T11:31:06.602Z,23.94
2022-09-23T11:34:16.355Z,24.08
2022-09-23T11:36:50.900Z,24.19
2022-09-23T11:39:36.280Z,24.82
2022-09-23T11:42:10.770Z,24.93
2022-09-23T11:44:44.852Z,26.36
2022-09-23T11:47:21.155Z,24.98
2022-09-23T11:50:27.222Z,27.27
2022-09-23T11:53:22.820Z,28.10
2022-09-23T11:55:58.815Z,26.56
2022-09-23T11:58:37.612Z,26.51
2022-09-23T12:01:16.867Z,25.57
2022-09-23T12:04:14.349Z,26.04
2022-09-23T12:07:13.685Z,26.11
2022-09-23T12:10:06.484Z,28.42
2022-09-23T12:12:54.247Z,30.38
2022-09-23T12:15:33.412Z,30.05
2022-09-23T12:18:23.563Z,29.55
2022-09-23T12:21:38.815Z,30.47
2022-09-23T12:24:33.101Z,29.44
2022-09-23T12:27:11.097Z,29.71
2022-09-23T12:29:42.237Z,28.99
2022-09-23T12:32:18.609Z,29.17
2022-09-23T12:34:52.488Z,29.34
2022-09-23T12:37:35.611Z,28.59
2022-09-23T12:40:23.084Z,29.14
2022-09-23T12:42:52.565Z,31.57
2022-09-23T12:45:40.582Z,32.10
2022-09-23T12:48:25.709Z,31.74
2022-09-23T12:51:13.398Z,31.72
2022-09-23T12:53:50.860Z,31.28
2022-09-23T12:56:28.955Z,30.53
2022-09-23T12:59:21.657Z,30.44
2022-09-23T13:01:48.900Z,30.00
2022-09-23T13:05:10.116Z,30.50
2022-09-23T13:07:48.115Z,30.37
2022-09-23T13:10:32.829Z,30.64
2022-09-23T13:13:02.531Z,31.11
2022-09-23T13:15:36.133Z,31.26
2022-09-23T13:18:21.661Z,31.23
2022-09-23T13:20:51.126Z,31.79
2022-09-23T13:23:23.574Z,32.34
2022-09-23T13:25:56.733Z,32.36
2022-09-23T13:29:00.389Z,32.91
2022-09-23T13:31:27.640Z,32.70
2022-09-23T13:34:05.034Z,34.68
2022-09-23T13:36:48.046Z,35.22
2022-09-23T13:39:27.667Z,36.30
2022-09-23T13:42:01.706Z,35.73
2022-09-23T13:44:30.082Z,35.74
2022-09-23T13:47:03.505Z,36.45
2022-09-23T13:49:36.663Z,36.19
2022-09-23T13:52:04.598Z,35.87
2022-09-23T13:54:49.827Z,36.42
2022-09-23T13:57:34.520Z,36.65
2022-09-23T14:00:25.502Z,37.30
2022-09-23T14:02:57.022Z,37.04
2022-09-23T14:05:33.886Z,37.08
2022-09-23T14:08:03.503Z,36.64
2022-09-23T14:10:31.256Z,36.45
2022-09-23T14:12:59.510Z,37.25
2022-09-23T14:15:27.088Z,37.17
2022-09-23T14:18:03.691Z,37.22
2022-09-23T14:20:34.304Z,37.05
2022-09-23T14:23:15.460Z,37.82
2022-09-23T14:25:47.035Z,37.53
2022-09-23T14:28:23.715Z,38.05
2022-09-23T14:30:54.548Z,38.45
2022-09-23T14:33:33.529Z,38.13
2022-09-23T14:36:28.642Z,37.99
2022-09-23T14:39:09.048Z,38.00
2022-09-23T14:41:43.865Z,38.11
2022-09-23T14:44:28.355Z,38.06
2022-09-23T14:47:01.351Z,38.86
2022-09-23T14:49:28.507Z,38.90
2022-09-23T14:52:00.572Z,39.42
2022-09-23T14:54:37.654Z,39.35
2022-09-23T14:57:29.700Z,39.09
2022-09-23T15:00:29.443Z,39.37
2022-09-23T15:03:14.635Z,40.33
2022-09-23T15:05:50.750Z,40.62
2022-09-23T15:08:23.194Z,40.93
2022-09-23T15:10:50.711Z,41.03
2022-09-23T15:13:45.550Z,41.15
2022-09-23T15:16:15.603Z,40.57
2022-09-23T15:18:54.279Z,40.34
2022-09-23T15:21:25.025Z,40.40
2022-09-23T15:23:55.085Z,41.06
2022-09-23T15:26:26.513Z,41.00
2022-09-23T15:28:58.641Z,41.36
2022-09-23T15:31:27.982Z,41.33
2022-09-23T15:33:56.065Z,41.68
2022-09-23T15:36:30.705Z,41.97
2022-09-23T15:39:05.366Z,42.53
2022-09-23T15:41:36.029Z,42.48
2022-09-23T15:44:13.275Z,42.59
2022-09-23T15:46:52.162Z,42.45
2022-09-23T15:49:39.189Z,42.38
2022-09-23T15:52:10.267Z,42.61
2022-09-23T15:54:38.368Z,42.86
2022-09-23T15:57:05.597Z,42.85
2022-09-23T15:59:33.082Z,43.29
2022-09-23T16:02:05.901Z,43.26
2022-09-23T16:04:36.264Z,43.68
2022-09-23T16:07:05.259Z,44.16
2022-09-23T16:09:32.404Z,44.46
2022-09-23T16:12:03.502Z,44.52
2022-09-23T16:14:33.260Z,44.86
2022-09-23T16:17:05.222Z,44.58
2022-09-23T16:19:34.285Z,45.08
2022-09-23T16:22:01.785Z,45.53
2022-09-23T16:24:29.396Z,45.94
2022-09-23T16:27:00.241Z,46.40
2022-09-23T16:29:29.707Z,46.47
2022-09-23T16:32:01.049Z,47.07
2022-09-23T16:34:28.787Z,46.66
2022-09-23T16:36:56.242Z,47.07
2022-09-23T16:39:23.401Z,47.27
2022-09-23T16:41:50.594Z,47.69
2022-09-23T16:44:17.739Z,47.77
2022-09-23T16:46:44.812Z,47.64
2022-09-23T16:49:16.711Z,48.50
2022-09-23T16:51:43.956Z,48.29
2022-09-23T16:54:13.213Z,48.78
2022-09-23T16:56:44.265Z,49.42
2022-09-23T16:59:15.976Z,49.91
2022-09-23T17:02:04.511Z,49.99
2022-09-23T17:04:35.479Z,50.46
2022-09-23T17:07:05.216Z,50.81
2022-09-23T17:09:32.622Z,50.94
2022-09-23T17:12:16.542Z,50.70
2022-09-23T17:14:43.734Z,51.10
2022-09-23T17:17:13.357Z,51.26
2022-09-23T17:19:42.799Z,51.35
2022-09-23T17:22:10.015Z,51.72
2022-09-23T17:24:39.136Z,52.24
2022-09-23T17:27:06.125Z,52.47
2022-09-23T17:29:33.374Z,52.23
2022-09-23T17:32:00.368Z,52.55
2022-09-23T17:34:30.107Z,51.88
2022-09-23T17:36:57.432Z,52.45
2022-09-23T17:39:29.149Z,52.95
2022-09-23T17:41:57.482Z,52.96
2022-09-23T17:44:24.740Z,52.68
2022-09-23T17:46:52.607Z,52.91
2022-09-23T17:49:24.171Z,52.80
2022-09-23T17:51:53.750Z,53.47
2022-09-23T17:54:23.104Z,53.85
2022-09-23T17:56:50.118Z,54.01
2022-09-23T17:59:17.450Z,54.12
2022-09-23T18:01:46.825Z,54.81
2022-09-23T18:04:16.251Z,54.79
2022-09-23T18:06:43.756Z,55.12
2022-09-23T18:09:13.525Z,55.64
2022-09-23T18:11:53.406Z,55.65
2022-09-23T18:14:26.619Z,56.67
2022-09-23T18:17:01.302Z,56.59
2022-09-23T18:19:30.485Z,56.75
2022-09-23T18:21:59.687Z,57.29
2022-09-23T18:24:34.222Z,56.81
2022-09-23T18:27:02.535Z,57.42
2022-09-23T18:29:31.654Z,57.24
2022-09-23T18:32:03.471Z,56.81
2022-09-23T18:34:31.174Z,57.67
2022-09-23T18:37:00.750Z,57.64
2022-09-23T18:39:29.235Z,57.61
2022-09-23T18:42:10.417Z,58.12
2022-09-23T18:44:39.992Z,58.67
2022-09-23T18:47:07.394Z,58.18
2022-09-23T18:49:53.874Z,58.04
2022-09-23T18:52:26.640Z,58.58
2022-09-23T18:55:01.203Z,59.01
2022-09-23T18:57:30.871Z,58.59
2022-09-23T19:00:00.220Z,58.17
2022-09-23T19:02:27.749Z,58.54
2022-09-23T19:04:55.125Z,58.17
2022-09-23T19:07:25.598Z,58.85
2022-09-23T19:09:59.783Z,59.00
2022-09-23T19:12:26.787Z,59.18
2022-09-23T19:14:55.752Z,59.37
2022-09-23T19:17:23.445Z,59.31
2022-09-23T19:19:52.547Z,59.64
2022-09-23T19:22:19.848Z,61.10
2022-09-23T19:24:47.231Z,60.84
2022-09-23T19:27:16.742Z,61.50
2022-09-23T19:29:48.064Z,62.07
2022-09-23T19:32:15.979Z,62.01
2022-09-23T19:34:44.334Z,62.50
2022-09-23T19:37:17.211Z,63.22
2022-09-23T19:39:44.777Z,63.21
2022-09-23T19:42:11.642Z,63.55
2022-09-23T19:44:41.216Z,64.37
2022-09-23T19:47:15.369Z,64.62
2022-09-23T19:49:44.732Z,65.10
2022-09-23T19:52:12.849Z,65.97
2022-09-23T19:54:40.585Z,66.50
2022-09-23T19:57:10.469Z,67.62
2022-09-23T19:59:38.620Z,67.51
2022-09-23T20:02:06.610Z,67.92
2022-09-23T20:04:37.269Z,68.74
2022-09-23T20:07:08.030Z,68.33
2022-09-23T20:09:36.074Z,67.49
2022-09-23T20:12:06.174Z,67.67
2022-09-23T20:14:37.929Z,66.77
2022-09-23T20:17:04.884Z,66.48
2022-09-23T20:19:34.218Z,66.37
2022-09-23T20:22:19.599Z,67.12
2022-09-23T20:24:46.764Z,68.03
2022-09-23T20:27:17.039Z,69.68
2022-09-23T20:29:44.114Z,68.91
2022-09-23T20:32:13.309Z,67.56
2022-09-23T20:34:48.722Z,67.86
2022-09-23T20:37:23.462Z,67.55
2022-09-23T20:39:54.304Z,67.59
2022-09-23T20:42:24.361Z,67.75
2022-09-23T20:44:51.868Z,67.88
2022-09-23T20:47:19.660Z,68.53
2022-09-23T20:49:49.760Z,68.25
2022-09-23T20:52:21.564Z,69.88
2022-09-23T20:54:51.555Z,70.52
2022-09-23T20:57:20.246Z,70.36
2022-09-23T20:59:48.617Z,70.49
2022-09-23T21:02:16.206Z,69.51
2022-09-23T21:04:44.409Z,70.29
2022-09-23T21:07:11.387Z,69.36
2022-09-23T21:09:38.569Z,68.62
2022-09-23T21:12:08.112Z,69.49
2022-09-23T21:14:34.961Z,68.08
2022-09-23T21:17:04.796Z,67.16
2022-09-23T21:19:31.879Z,67.01
2022-09-23T21:22:07.593Z,67.70
2022-09-23T21:27:38.053Z,68.75
2022-09-23T21:30:08.003Z,68.23
2022-09-23T21:32:35.824Z,69.13
2022-09-23T21:35:02.777Z,68.67
2022-09-23T21:37:30.797Z,68.82
2022-09-23T21:40:16.164Z,69.03
2022-09-23T21:42:43.707Z,69.16
2022-09-23T21:45:21.085Z,69.40
2022-09-23T21:47:51.997Z,69.49
2022-09-23T21:50:21.655Z,68.43
2022-09-23T21:52:51.974Z,67.90
2022-09-23T21:55:41.164Z,68.02
2022-09-23T21:58:16.115Z,68.34
2022-09-23T22:00:44.931Z,68.18
2022-09-23T22:03:12.412Z,68.51
2022-09-23T22:05:44.031Z,68.62
2022-09-23T22:08:11.200Z,69.99
2022-09-23T22:10:38.454Z,70.67
2022-09-23T22:13:12.965Z,70.44
2022-09-23T22:15:40.232Z,70.35
2022-09-23T22:18:12.742Z,69.84
2022-09-23T22:20:44.339Z,69.46
2022-09-23T22:23:21.452Z,69.79
2022-09-23T22:26:02.804Z,69.30
2022-09-23T22:28:51.911Z,68.79
2022-09-23T22:31:37.588Z,69.64
2022-09-23T22:34:08.257Z,69.82
2022-09-23T22:36:40.637Z,69.73
2022-09-23T22:39:10.088Z,70.18
2022-09-23T22:41:41.430Z,69.91
2022-09-23T22:44:08.543Z,70.30
2022-09-23T22:46:37.610Z,69.76
2022-09-23T22:49:08.223Z,69.18
2022-09-23T22:51:35.314Z,69.47
2022-09-23T22:54:02.490Z,68.87
2022-09-23T22:56:29.640Z,67.78
2022-09-23T22:58:57.420Z,67.78
2022-09-23T23:01:24.462Z,68.53
2022-09-23T23:03:53.726Z,67.48
2022-09-23T23:06:22.721Z,66.80
2022-09-23T23:08:58.603Z,66.84
2022-09-23T23:11:27.660Z,66.25
2022-09-23T23:14:01.398Z,66.26
2022-09-23T23:16:35.078Z,67.07
2022-09-23T23:19:04.484Z,68.04
2022-09-23T23:21:31.586Z,68.12
2022-09-23T23:24:03.800Z,67.56
2022-09-23T23:26:33.001Z,67.11
2022-09-23T23:29:03.548Z,68.67
2022-09-23T23:31:32.250Z,68.89
2022-09-23T23:33:59.292Z,68.12
2022-09-23T23:36:26.470Z,68.42
2022-09-23T23:38:56.472Z,68.70
2022-09-23T23:41:30.008Z,69.19
2022-09-23T23:44:00.556Z,68.71
2022-09-23T23:46:30.451Z,69.14
2022-09-23T23:49:00.613Z,69.64
2022-09-23T23:51:28.696Z,68.62
2022-09-23T23:53:56.163Z,68.66
2022-09-23T23:56:27.711Z,69.27
2022-09-23T23:58:57.178Z,68.72
